Wisdom, Montana
Current Conditions -  °F | °C
As of 9:15 AM on Tuesday 21 Oct 2014 (Local Time) from KSMN Reporting Station
Thunderstorm Thunderstorm  
Wind Chill: 44°   Ceiling: 4300
Heat Index: 48°   Visibility: 8mi
Dew Point: 43°   Wind: 9mph
Humidity: 82%   Direction: 160°SSE
Pressure: 29.79"   Gusts: NA
Location:  45.61°N, 113.44°W
Report Text: KSMN 211515Z AUTO 16008KT 8SM TS FEW031 BKN043 OVC050 09/06 A2979 RMK AO1 LTG DSNT SE P0011
Loading
Personal Weather Stations






























Interactive Weather Map
Tropical Storm Tracking
New forecast layout! Learn more

10-Day Weather Forecast

Advertisements
Track Severe Weather on mobile